Time;durP1;ratioP1;P1;durP2;ratioP2;P2;SDS_P1;SDS_P2;PMS_P1;PMS_P2;Temp;Humidity;BMP_temperature;BMP_pressure;BME280_temperature;BME280_humidity;BME280_pressure;Samples;Min_cycle;Max_cycle;Signal;HPM_P1;HPM_P2
2023/07/28 00:00:54;;;;;;;20.20;7.78;;;;;;;;;;5001442;28;25074;-65
2023/07/28 00:03:20;;;;;;;18.25;8.82;;;;;;;;;;5001072;28;25073;-66
2023/07/28 00:05:46;;;;;;;11.88;7.03;;;;;;;;;;5014379;28;25073;-69
2023/07/28 00:08:12;;;;;;;15.32;6.63;;;;;;;;;;5006163;28;25088;-66
2023/07/28 00:10:42;;;;;;;11.80;6.38;;;;;;;;;;5012396;28;25175;-67
2023/07/28 00:13:08;;;;;;;13.13;5.68;;;;;;;;;;5012473;28;25093;-66
2023/07/28 00:15:34;;;;;;;10.52;5.18;;;;;;;;;;5003165;28;25111;-64
2023/07/28 00:18:01;;;;;;;9.40;5.53;;;;;;;;;;5001910;28;25070;-67
2023/07/28 00:20:27;;;;;;;12.95;5.38;;;;;;;;;;5005392;28;25157;-66
2023/07/28 00:22:53;;;;;;;13.13;5.03;;;;;;;;;;5004672;28;25108;-67
2023/07/28 00:25:19;;;;;;;16.60;5.30;;;;;;;;;;5016198;28;25085;-66
2023/07/28 00:27:45;;;;;;;13.90;6.18;;;;;;;;;;5010225;28;25052;-66
2023/07/28 00:30:12;;;;;;;10.93;5.55;;;;;;;;;;5007208;28;25145;-66
2023/07/28 00:32:38;;;;;;;11.35;5.40;;;;;;;;;;5001735;28;25098;-66
2023/07/28 00:35:05;;;;;;;8.77;5.05;;;;;;;;;;5005235;28;25065;-65
2023/07/28 00:37:31;;;;;;;14.85;5.80;;;;;;;;;;5002966;28;25073;-64
2023/07/28 00:39:56;;;;;;;8.88;5.45;;;;;;;;;;5009626;28;25137;-65
2023/07/28 00:42:22;;;;;;;9.20;5.78;;;;;;;;;;5004627;28;25136;-68
2023/07/28 00:44:48;;;;;;;15.02;6.00;;;;;;;;;;5011198;28;25087;-65
2023/07/28 00:47:14;;;;;;;13.05;6.72;;;;;;;;;;5008583;28;25084;-68
2023/07/28 00:49:41;;;;;;;17.42;7.18;;;;;;;;;;5003634;28;25060;-67
2023/07/28 00:52:08;;;;;;;12.30;5.85;;;;;;;;;;5010895;28;25069;-66
2023/07/28 00:54:34;;;;;;;23.40;6.97;;;;;;;;;;5009340;28;25187;-66
2023/07/28 00:57:00;;;;;;;16.52;7.18;;;;;;;;;;5003663;28;25089;-67
2023/07/28 00:59:26;;;;;;;17.38;7.00;;;;;;;;;;5008879;28;25054;-66
2023/07/28 01:01:52;;;;;;;27.23;8.07;;;;;;;;;;5011719;28;25088;-66
2023/07/28 01:04:18;;;;;;;13.15;7.03;;;;;;;;;;5005097;28;25150;-67
2023/07/28 01:06:50;;;;;;;19.00;7.38;;;;;;;;;;5010879;28;25056;-66
2023/07/28 01:09:19;;;;;;;18.73;8.25;;;;;;;;;;5003837;28;25078;-66
2023/07/28 01:11:55;;;;;;;17.63;8.63;;;;;;;;;;5005705;28;25058;-66
2023/07/28 01:14:21;;;;;;;18.20;8.57;;;;;;;;;;5001255;28;25068;-66
2023/07/28 01:16:47;;;;;;;17.05;8.13;;;;;;;;;;4998830;28;25154;-66
2023/07/28 01:19:15;;;;;;;28.33;8.45;;;;;;;;;;4998096;28;25089;-66
2023/07/28 01:21:43;;;;;;;22.35;9.55;;;;;;;;;;5000654;28;25137;-65
2023/07/28 01:24:16;;;;;;;21.30;8.80;;;;;;;;;;5011746;28;25155;-66
2023/07/28 01:26:42;;;;;;;19.25;8.35;;;;;;;;;;5011476;28;25051;-65
2023/07/28 01:29:08;;;;;;;22.10;9.13;;;;;;;;;;5005653;28;25176;-66
2023/07/28 01:31:34;;;;;;;23.23;8.63;;;;;;;;;;5007949;28;25078;-66
2023/07/28 01:34:00;;;;;;;29.10;9.57;;;;;;;;;;5001175;28;25075;-66
2023/07/28 01:36:26;;;;;;;23.35;8.85;;;;;;;;;;5006643;28;25079;-65
2023/07/28 01:38:53;;;;;;;25.88;10.02;;;;;;;;;;5001936;28;25056;-66
2023/07/28 01:41:19;;;;;;;25.85;9.32;;;;;;;;;;5004924;28;25069;-66
2023/07/28 01:43:45;;;;;;;22.05;10.27;;;;;;;;;;5006884;28;25076;-65
2023/07/28 01:46:11;;;;;;;22.20;9.60;;;;;;;;;;5000557;28;25067;-66
2023/07/28 01:48:37;;;;;;;20.92;8.55;;;;;;;;;;5000721;28;25058;-66
2023/07/28 01:51:03;;;;;;;27.58;9.65;;;;;;;;;;5009014;28;25103;-66
2023/07/28 01:53:29;;;;;;;26.27;10.10;;;;;;;;;;5002070;28;25079;-66
2023/07/28 01:55:55;;;;;;;27.50;10.52;;;;;;;;;;5000264;28;25064;-66
2023/07/28 01:58:21;;;;;;;27.38;10.40;;;;;;;;;;5007318;28;25164;-66
2023/07/28 02:00:47;;;;;;;39.50;11.50;;;;;;;;;;5009076;28;25070;-65
2023/07/28 02:03:13;;;;;;;28.80;10.40;;;;;;;;;;5011868;28;25105;-66
2023/07/28 02:05:39;;;;;;;33.85;11.15;;;;;;;;;;4996476;28;25054;-66
2023/07/28 02:08:05;;;;;;;21.45;10.02;;;;;;;;;;5002471;28;25081;-65
2023/07/28 02:10:31;;;;;;;34.05;11.25;;;;;;;;;;5005335;28;25172;-67
2023/07/28 02:12:57;;;;;;;22.70;9.55;;;;;;;;;;5004836;28;25059;-65
2023/07/28 02:15:23;;;;;;;25.70;9.88;;;;;;;;;;5005834;28;25076;-67
2023/07/28 02:17:49;;;;;;;22.27;11.60;;;;;;;;;;5005004;28;25155;-67
2023/07/28 02:20:15;;;;;;;28.42;11.23;;;;;;;;;;5002828;28;25066;-66
2023/07/28 02:22:42;;;;;;;27.27;10.88;;;;;;;;;;5003189;28;25148;-66
2023/07/28 02:25:08;;;;;;;23.58;9.75;;;;;;;;;;5005570;28;25065;-65
2023/07/28 02:27:34;;;;;;;22.27;10.23;;;;;;;;;;5004494;28;25068;-66
2023/07/28 02:30:00;;;;;;;24.73;11.43;;;;;;;;;;5000670;28;25086;-66
2023/07/28 02:32:27;;;;;;;34.30;10.02;;;;;;;;;;5012288;28;25175;-67
2023/07/28 02:34:53;;;;;;;26.73;10.43;;;;;;;;;;5006802;28;25111;-65
2023/07/28 02:37:19;;;;;;;24.77;9.82;;;;;;;;;;5008403;28;25103;-66
2023/07/28 02:39:45;;;;;;;24.98;9.90;;;;;;;;;;5007349;28;25043;-67
2023/07/28 02:42:11;;;;;;;32.67;10.73;;;;;;;;;;4995001;28;25054;-66
2023/07/28 02:44:37;;;;;;;25.92;10.45;;;;;;;;;;5006485;28;25094;-66
2023/07/28 02:47:03;;;;;;;25.67;10.18;;;;;;;;;;5012115;28;25137;-63
2023/07/28 02:49:28;;;;;;;28.17;10.07;;;;;;;;;;5013822;28;25060;-66
2023/07/28 02:51:54;;;;;;;24.08;10.38;;;;;;;;;;5013502;28;25127;-66
2023/07/28 02:54:23;;;;;;;31.90;10.35;;;;;;;;;;5009528;28;25151;-65
2023/07/28 02:56:49;;;;;;;24.77;10.15;;;;;;;;;;4995428;28;25061;-65
2023/07/28 02:59:15;;;;;;;23.10;9.65;;;;;;;;;;5009534;28;25100;-65
2023/07/28 03:01:41;;;;;;;22.80;10.25;;;;;;;;;;5008839;28;25060;-66
2023/07/28 03:04:07;;;;;;;32.70;11.55;;;;;;;;;;5009953;28;25073;-67
2023/07/28 03:06:33;;;;;;;23.42;10.32;;;;;;;;;;4999869;28;25115;-66
2023/07/28 03:09:00;;;;;;;20.17;9.80;;;;;;;;;;5000792;28;25059;-67
2023/07/28 03:11:25;;;;;;;25.77;10.18;;;;;;;;;;5011142;28;25070;-65
2023/07/28 03:13:51;;;;;;;29.95;11.70;;;;;;;;;;5003952;28;25092;-66
2023/07/28 03:16:17;;;;;;;26.88;10.07;;;;;;;;;;5004728;28;25081;-66
2023/07/28 03:18:43;;;;;;;28.85;11.25;;;;;;;;;;5007954;28;25120;-66
2023/07/28 03:21:09;;;;;;;39.47;12.35;;;;;;;;;;5006205;28;25174;-66
2023/07/28 03:23:36;;;;;;;30.00;12.35;;;;;;;;;;5010630;28;25050;-67
2023/07/28 03:26:02;;;;;;;29.70;11.75;;;;;;;;;;5003159;28;25072;-66
2023/07/28 03:28:28;;;;;;;32.60;11.23;;;;;;;;;;4998991;28;25088;-66
2023/07/28 03:30:54;;;;;;;33.70;11.48;;;;;;;;;;5006352;28;25074;-68
2023/07/28 03:33:20;;;;;;;26.63;11.77;;;;;;;;;;5007284;28;25064;-67
2023/07/28 03:35:46;;;;;;;30.58;11.25;;;;;;;;;;5006608;28;25059;-66
2023/07/28 03:38:11;;;;;;;28.50;12.40;;;;;;;;;;5004515;28;25130;-66
2023/07/28 03:40:37;;;;;;;31.58;12.75;;;;;;;;;;5007952;28;25149;-65
2023/07/28 03:43:03;;;;;;;25.58;10.80;;;;;;;;;;5010034;28;25048;-66
2023/07/28 03:45:30;;;;;;;23.05;10.73;;;;;;;;;;5007617;28;25087;-67
2023/07/28 03:47:55;;;;;;;30.70;11.68;;;;;;;;;;5007346;28;25091;-67
2023/07/28 03:50:24;;;;;;;32.85;11.98;;;;;;;;;;5001393;28;25113;-67
2023/07/28 03:52:50;;;;;;;35.70;13.27;;;;;;;;;;5004979;28;25056;-67
2023/07/28 03:55:16;;;;;;;33.22;11.77;;;;;;;;;;5007102;28;25076;-67
2023/07/28 03:57:42;;;;;;;27.50;11.20;;;;;;;;;;5007130;28;25094;-68
2023/07/28 04:00:08;;;;;;;33.67;13.18;;;;;;;;;;5007099;28;25170;-66
2023/07/28 04:02:34;;;;;;;33.67;12.93;;;;;;;;;;4997549;28;25076;-66
2023/07/28 04:05:00;;;;;;;37.90;12.85;;;;;;;;;;5004333;28;25104;-66
2023/07/28 04:07:26;;;;;;;28.40;12.50;;;;;;;;;;5010580;28;25068;-65
2023/07/28 04:09:52;;;;;;;35.95;13.40;;;;;;;;;;5008389;28;25046;-64
2023/07/28 04:12:18;;;;;;;27.70;12.00;;;;;;;;;;5008126;28;25058;-66
2023/07/28 04:14:44;;;;;;;27.13;11.98;;;;;;;;;;5005047;28;25102;-66
2023/07/28 04:17:11;;;;;;;35.80;12.65;;;;;;;;;;4998733;28;25080;-65
2023/07/28 04:19:37;;;;;;;31.52;11.73;;;;;;;;;;5012954;28;25060;-67
2023/07/28 04:22:03;;;;;;;34.42;12.57;;;;;;;;;;5010735;28;25145;-67
2023/07/28 04:24:29;;;;;;;33.00;12.70;;;;;;;;;;5004690;28;25052;-66
2023/07/28 04:26:55;;;;;;;37.22;11.93;;;;;;;;;;4999613;28;25089;-66
2023/07/28 04:29:21;;;;;;;28.05;11.60;;;;;;;;;;5005350;28;25066;-68
2023/07/28 04:31:47;;;;;;;32.40;12.13;;;;;;;;;;5000931;28;25084;-66
2023/07/28 04:34:13;;;;;;;35.88;11.65;;;;;;;;;;5003754;28;25061;-66
2023/07/28 04:36:39;;;;;;;25.00;11.00;;;;;;;;;;5000098;28;25064;-67
2023/07/28 04:39:05;;;;;;;24.20;10.68;;;;;;;;;;5008645;28;25118;-67
2023/07/28 04:41:31;;;;;;;24.85;10.27;;;;;;;;;;5002102;28;25078;-67
2023/07/28 04:43:57;;;;;;;35.20;10.93;;;;;;;;;;5008816;28;24944;-67
2023/07/28 04:46:23;;;;;;;24.05;10.95;;;;;;;;;;5004209;28;25136;-67
2023/07/28 04:48:49;;;;;;;33.60;12.30;;;;;;;;;;4998358;28;25063;-66
2023/07/28 04:51:15;;;;;;;29.88;10.88;;;;;;;;;;4998441;28;25093;-66
2023/07/28 04:53:41;;;;;;;34.78;12.05;;;;;;;;;;4993784;28;25069;-66
2023/07/28 04:56:07;;;;;;;29.00;11.75;;;;;;;;;;5009206;28;25063;-67
2023/07/28 04:58:33;;;;;;;30.00;12.20;;;;;;;;;;5004239;28;25052;-66
2023/07/28 05:00:59;;;;;;;27.02;11.23;;;;;;;;;;5001460;28;24813;-66
2023/07/28 05:03:25;;;;;;;30.77;11.10;;;;;;;;;;4999050;28;25071;-67
2023/07/28 05:05:51;;;;;;;32.25;11.70;;;;;;;;;;4997015;28;25121;-65
2023/07/28 05:08:17;;;;;;;29.40;11.18;;;;;;;;;;5003265;28;25068;-66
2023/07/28 05:10:43;;;;;;;34.40;12.38;;;;;;;;;;5008320;28;25092;-66
2023/07/28 05:13:09;;;;;;;32.35;10.73;;;;;;;;;;5006660;28;25072;-66
2023/07/28 05:15:35;;;;;;;35.60;12.80;;;;;;;;;;5002020;28;25073;-67
2023/07/28 05:18:01;;;;;;;41.63;12.68;;;;;;;;;;5005235;28;25121;-67
2023/07/28 05:20:28;;;;;;;28.25;10.75;;;;;;;;;;5005330;28;25058;-67
2023/07/28 05:22:53;;;;;;;31.00;12.10;;;;;;;;;;5002518;28;25073;-67
2023/07/28 05:25:19;;;;;;;36.28;11.15;;;;;;;;;;5002874;28;25060;-68
2023/07/28 05:27:45;;;;;;;34.95;11.45;;;;;;;;;;5002065;28;25108;-67
2023/07/28 05:30:11;;;;;;;32.95;11.68;;;;;;;;;;5008986;28;25146;-67
2023/07/28 05:32:37;;;;;;;32.33;11.77;;;;;;;;;;4997387;28;25143;-67
2023/07/28 05:35:04;;;;;;;33.03;11.38;;;;;;;;;;5003457;28;25158;-67
2023/07/28 05:37:29;;;;;;;28.55;11.38;;;;;;;;;;5015373;28;25051;-66
2023/07/28 05:39:56;;;;;;;36.55;12.18;;;;;;;;;;5007390;28;25092;-65
2023/07/28 05:42:24;;;;;;;31.00;11.38;;;;;;;;;;5006203;28;25094;-68
2023/07/28 05:44:52;;;;;;;28.20;10.38;;;;;;;;;;5003233;28;25079;-67
2023/07/28 05:47:18;;;;;;;16.60;8.43;;;;;;;;;;5002841;28;25070;-68
2023/07/28 05:49:44;;;;;;;32.90;11.07;;;;;;;;;;5011109;28;25053;-70
2023/07/28 05:52:10;;;;;;;24.88;9.88;;;;;;;;;;5006466;28;25058;-68
2023/07/28 05:54:35;;;;;;;25.13;9.85;;;;;;;;;;5007851;28;25099;-70
2023/07/28 05:57:02;;;;;;;25.17;11.02;;;;;;;;;;5010056;28;25055;-70
2023/07/28 05:59:29;;;;;;;27.85;9.88;;;;;;;;;;5006251;28;25102;-68
2023/07/28 06:01:55;;;;;;;29.55;10.02;;;;;;;;;;5008354;28;25064;-68
2023/07/28 06:04:21;;;;;;;32.85;9.48;;;;;;;;;;5024868;28;25059;-68
2023/07/28 06:06:47;;;;;;;29.08;8.80;;;;;;;;;;5004562;28;25073;-69
2023/07/28 06:09:14;;;;;;;23.67;9.60;;;;;;;;;;5008592;28;25042;-69
2023/07/28 06:11:40;;;;;;;21.98;9.40;;;;;;;;;;5005575;28;25061;-68
2023/07/28 06:14:06;;;;;;;23.77;9.38;;;;;;;;;;5002013;28;25078;-67
2023/07/28 06:16:32;;;;;;;24.13;9.82;;;;;;;;;;4996636;28;25072;-67
2023/07/28 06:18:57;;;;;;;27.98;9.60;;;;;;;;;;5015857;28;25065;-68
2023/07/28 06:21:23;;;;;;;34.90;9.65;;;;;;;;;;5022123;28;25080;-68
2023/07/28 06:23:50;;;;;;;32.10;12.13;;;;;;;;;;5015807;28;25098;-68
2023/07/28 06:26:15;;;;;;;30.88;14.32;;;;;;;;;;5011836;28;25125;-68
2023/07/28 06:28:41;;;;;;;36.20;14.55;;;;;;;;;;5013188;28;25060;-67
2023/07/28 06:31:08;;;;;;;29.13;15.35;;;;;;;;;;5009679;28;25094;-69
2023/07/28 06:33:34;;;;;;;30.27;13.35;;;;;;;;;;5012303;28;25066;-68
2023/07/28 06:36:00;;;;;;;27.30;13.98;;;;;;;;;;5006190;28;25180;-69
2023/07/28 06:38:27;;;;;;;29.70;13.60;;;;;;;;;;5005614;28;25074;-68
2023/07/28 06:40:53;;;;;;;37.42;14.48;;;;;;;;;;4999093;28;25131;-68
2023/07/28 06:43:19;;;;;;;31.13;14.48;;;;;;;;;;4997318;28;25070;-69
2023/07/28 06:45:45;;;;;;;31.63;13.90;;;;;;;;;;5008693;28;25055;-70
2023/07/28 06:48:11;;;;;;;36.05;12.88;;;;;;;;;;5002334;28;25063;-68
2023/07/28 06:50:37;;;;;;;24.33;12.23;;;;;;;;;;4998028;28;25066;-68
2023/07/28 06:53:03;;;;;;;27.10;12.60;;;;;;;;;;4997044;28;25097;-67
2023/07/28 06:55:29;;;;;;;27.00;11.52;;;;;;;;;;5002757;28;25103;-69
2023/07/28 06:57:55;;;;;;;29.00;10.80;;;;;;;;;;5004347;28;25049;-70
2023/07/28 07:00:21;;;;;;;29.33;11.38;;;;;;;;;;5002105;28;25110;-68
2023/07/28 07:02:47;;;;;;;22.63;10.77;;;;;;;;;;5004317;28;25126;-70
2023/07/28 07:05:13;;;;;;;21.67;10.00;;;;;;;;;;5010946;28;25081;-68
2023/07/28 07:07:39;;;;;;;15.80;8.60;;;;;;;;;;5015091;28;25057;-69
2023/07/28 07:10:06;;;;;;;20.40;8.95;;;;;;;;;;5001689;28;25064;-68
2023/07/28 07:12:32;;;;;;;17.48;8.70;;;;;;;;;;5013338;28;25105;-68
2023/07/28 07:14:58;;;;;;;19.88;10.02;;;;;;;;;;5017270;28;25076;-69
2023/07/28 07:17:24;;;;;;;27.35;11.95;;;;;;;;;;5012182;28;24987;-68
2023/07/28 07:19:50;;;;;;;27.95;11.57;;;;;;;;;;5003917;28;25078;-70
2023/07/28 07:22:16;;;;;;;23.58;11.75;;;;;;;;;;5005191;28;25079;-67
2023/07/28 07:24:43;;;;;;;23.35;11.70;;;;;;;;;;5003653;28;25105;-68
2023/07/28 07:27:10;;;;;;;21.08;11.95;;;;;;;;;;5014285;28;25065;-72
2023/07/28 07:29:36;;;;;;;26.00;12.77;;;;;;;;;;4999742;28;25084;-69
2023/07/28 07:32:02;;;;;;;32.17;14.13;;;;;;;;;;5012173;28;25095;-67
2023/07/28 07:34:28;;;;;;;27.58;14.52;;;;;;;;;;5005453;28;25180;-69
2023/07/28 07:36:56;;;;;;;24.40;13.60;;;;;;;;;;5009279;28;25084;-68
2023/07/28 07:39:22;;;;;;;27.60;14.38;;;;;;;;;;5007491;28;25086;-68
2023/07/28 07:41:48;;;;;;;25.63;13.52;;;;;;;;;;5006317;28;25166;-68
2023/07/28 07:44:14;;;;;;;27.60;14.80;;;;;;;;;;5011449;28;25110;-69
2023/07/28 07:46:40;;;;;;;27.60;15.07;;;;;;;;;;5006699;28;25300;-69
2023/07/28 07:49:06;;;;;;;30.48;14.93;;;;;;;;;;5007783;28;25061;-71
2023/07/28 07:51:34;;;;;;;28.77;15.90;;;;;;;;;;5003290;28;25089;-68
2023/07/28 07:54:01;;;;;;;29.35;15.43;;;;;;;;;;5000649;28;25067;-68
2023/07/28 07:56:27;;;;;;;36.92;17.45;;;;;;;;;;5001945;28;25144;-70
2023/07/28 07:58:53;;;;;;;27.40;15.75;;;;;;;;;;5005324;28;25164;-68
2023/07/28 08:01:19;;;;;;;31.13;15.52;;;;;;;;;;5004762;28;25099;-69
2023/07/28 08:03:45;;;;;;;26.35;15.25;;;;;;;;;;5004413;28;25089;-69
2023/07/28 08:06:12;;;;;;;27.23;15.02;;;;;;;;;;5007158;28;25068;-72
2023/07/28 08:08:38;;;;;;;29.63;15.98;;;;;;;;;;4998665;28;25092;-68
2023/07/28 08:11:04;;;;;;;25.85;15.35;;;;;;;;;;5016043;28;25083;-70
2023/07/28 08:13:30;;;;;;;28.05;15.52;;;;;;;;;;5015276;28;25151;-69
2023/07/28 08:15:56;;;;;;;30.08;14.25;;;;;;;;;;5003898;28;25083;-68
2023/07/28 08:18:22;;;;;;;26.48;15.00;;;;;;;;;;5004451;28;25140;-69
2023/07/28 08:20:48;;;;;;;23.90;14.82;;;;;;;;;;5005191;28;25065;-69
2023/07/28 08:23:14;;;;;;;26.85;14.93;;;;;;;;;;5003998;28;25078;-66
2023/07/28 08:25:40;;;;;;;34.80;16.42;;;;;;;;;;5010536;28;25051;-69
2023/07/28 08:28:06;;;;;;;32.40;16.15;;;;;;;;;;5013211;28;25129;-69
2023/07/28 08:30:33;;;;;;;29.00;15.80;;;;;;;;;;5004248;28;25058;-71
2023/07/28 08:32:59;;;;;;;31.30;15.77;;;;;;;;;;5002400;28;25084;-69
2023/07/28 08:35:25;;;;;;;24.00;15.52;;;;;;;;;;5013963;28;25146;-69
2023/07/28 08:37:51;;;;;;;32.75;15.75;;;;;;;;;;5009663;28;25181;-68
2023/07/28 08:40:17;;;;;;;30.67;16.77;;;;;;;;;;5011652;28;25111;-69
2023/07/28 08:42:44;;;;;;;31.08;16.95;;;;;;;;;;5002616;28;25146;-73
2023/07/28 08:45:10;;;;;;;32.40;17.58;;;;;;;;;;5011570;28;25050;-67
2023/07/28 08:47:37;;;;;;;39.63;16.60;;;;;;;;;;5010404;28;25060;-68
2023/07/28 08:50:04;;;;;;;32.75;16.17;;;;;;;;;;4998681;28;25164;-71
2023/07/28 08:52:30;;;;;;;39.58;17.67;;;;;;;;;;4996187;28;25081;-71
2023/07/28 08:54:55;;;;;;;34.25;17.13;;;;;;;;;;5005137;28;25062;-67
2023/07/28 08:57:22;;;;;;;36.55;18.63;;;;;;;;;;5006921;28;25051;-69
2023/07/28 08:59:49;;;;;;;37.15;17.05;;;;;;;;;;5013404;28;25063;-67
2023/07/28 09:02:16;;;;;;;29.90;18.35;;;;;;;;;;5009647;28;25177;-69
2023/07/28 09:04:46;;;;;;;28.58;16.42;;;;;;;;;;5009286;28;25062;-70
2023/07/28 09:07:12;;;;;;;30.42;17.23;;;;;;;;;;5009055;28;25077;-70
2023/07/28 09:09:40;;;;;;;29.80;16.20;;;;;;;;;;5005904;28;25109;-68
2023/07/28 09:12:06;;;;;;;30.05;16.77;;;;;;;;;;5013361;28;25065;-68
2023/07/28 09:14:35;;;;;;;27.38;16.88;;;;;;;;;;5009180;28;25149;-68
2023/07/28 09:17:11;;;;;;;31.02;17.70;;;;;;;;;;5001077;28;25074;-69
2023/07/28 09:19:53;;;;;;;28.30;17.15;;;;;;;;;;5010228;28;25084;-69
2023/07/28 09:22:20;;;;;;;27.75;16.55;;;;;;;;;;5005069;28;25078;-69
2023/07/28 09:24:47;;;;;;;35.47;17.48;;;;;;;;;;5006935;28;25090;-68
2023/07/28 09:27:23;;;;;;;32.88;15.70;;;;;;;;;;5001163;28;25077;-70
2023/07/28 09:29:50;;;;;;;28.48;15.52;;;;;;;;;;5009784;28;25075;-68
2023/07/28 09:32:16;;;;;;;33.15;16.52;;;;;;;;;;5016299;28;25068;-66
2023/07/28 09:34:42;;;;;;;32.58;15.02;;;;;;;;;;5018821;28;25056;-70
2023/07/28 09:37:10;;;;;;;24.67;14.15;;;;;;;;;;5010769;28;25132;-66
2023/07/28 09:39:37;;;;;;;25.90;14.07;;;;;;;;;;5009619;28;25064;-71
2023/07/28 09:42:04;;;;;;;22.77;13.30;;;;;;;;;;4995246;28;25065;-69
2023/07/28 09:44:30;;;;;;;25.58;15.38;;;;;;;;;;4999977;28;25074;-70
2023/07/28 09:46:57;;;;;;;26.92;14.88;;;;;;;;;;5003338;28;25105;-67
2023/07/28 09:49:28;;;;;;;25.65;15.75;;;;;;;;;;5007002;28;25130;-67
2023/07/28 09:51:57;;;;;;;28.65;15.93;;;;;;;;;;5004081;28;25199;-67
2023/07/28 09:54:29;;;;;;;23.10;15.25;;;;;;;;;;5005501;28;25047;-68
2023/07/28 09:56:56;;;;;;;;;;;;;;;;;;5002459;28;25077;-68
2023/07/28 09:59:25;;;;;;;28.17;16.15;;;;;;;;;;5019189;28;24103;-68
2023/07/28 10:01:51;;;;;;;26.98;15.75;;;;;;;;;;4998941;28;25089;-67
2023/07/28 10:04:17;;;;;;;25.92;16.40;;;;;;;;;;5007118;28;25065;-67
2023/07/28 10:06:43;;;;;;;20.58;14.05;;;;;;;;;;5010335;28;25090;-68
2023/07/28 10:09:11;;;;;;;26.83;14.65;;;;;;;;;;5007445;28;25104;-69
2023/07/28 10:11:37;;;;;;;22.55;13.93;;;;;;;;;;5005967;28;25063;-67
2023/07/28 10:14:04;;;;;;;21.45;13.60;;;;;;;;;;5002208;28;25065;-65
2023/07/28 10:16:31;;;;;;;20.92;12.77;;;;;;;;;;5017790;28;25066;-67
2023/07/28 10:18:57;;;;;;;20.70;12.23;;;;;;;;;;4997712;28;25060;-66
2023/07/28 10:21:27;;;;;;;16.58;11.02;;;;;;;;;;5014134;28;25088;-67
2023/07/28 10:23:57;;;;;;;20.08;11.40;;;;;;;;;;5006054;28;25053;-67
2023/07/28 10:26:36;;;;;;;18.23;11.82;;;;;;;;;;5002005;28;25074;-69
2023/07/28 10:29:13;;;;;;;21.73;11.30;;;;;;;;;;5008353;28;25153;-67
2023/07/28 10:31:49;;;;;;;14.73;10.15;;;;;;;;;;5010881;28;25109;-69
2023/07/28 10:34:16;;;;;;;17.25;10.52;;;;;;;;;;5009416;28;25102;-65
2023/07/28 10:36:45;;;;;;;17.38;11.15;;;;;;;;;;5004905;28;25153;-69
2023/07/28 10:39:14;;;;;;;17.58;12.02;;;;;;;;;;5002932;28;25050;-68
2023/07/28 10:41:47;;;;;;;19.00;12.18;;;;;;;;;;5008411;28;25155;-68
2023/07/28 10:44:13;;;;;;;21.60;14.65;;;;;;;;;;5011235;28;25112;-67
2023/07/28 10:46:39;;;;;;;24.05;14.95;;;;;;;;;;5006121;28;25060;-68
2023/07/28 10:49:07;;;;;;;18.17;13.70;;;;;;;;;;5006398;28;25068;-66
2023/07/28 10:51:33;;;;;;;22.10;14.48;;;;;;;;;;5011560;28;25087;-66
2023/07/28 10:54:02;;;;;;;27.88;17.42;;;;;;;;;;5006281;28;25095;-65
2023/07/28 10:56:29;;;;;;;24.98;17.92;;;;;;;;;;5015634;28;25080;-66
2023/07/28 10:58:58;;;;;;;21.42;15.65;;;;;;;;;;5017496;28;25069;-69
2023/07/28 11:01:33;;;;;;;25.65;16.67;;;;;;;;;;5009125;28;25068;-67
2023/07/28 11:04:06;;;;;;;23.52;17.00;;;;;;;;;;5015651;28;25077;-69
2023/07/28 11:06:32;;;;;;;17.90;13.13;;;;;;;;;;5008024;28;25074;-66
2023/07/28 11:08:58;;;;;;;17.90;12.63;;;;;;;;;;5013203;28;25150;-67
2023/07/28 11:11:24;;;;;;;22.20;14.10;;;;;;;;;;5013049;28;25062;-66
2023/07/28 11:13:51;;;;;;;19.35;12.32;;;;;;;;;;5014249;28;25082;-67
2023/07/28 11:16:17;;;;;;;19.83;14.38;;;;;;;;;;5016940;28;25140;-66
2023/07/28 11:18:43;;;;;;;16.80;13.35;;;;;;;;;;5018583;28;24866;-69
2023/07/28 11:21:09;;;;;;;21.88;13.52;;;;;;;;;;5004672;28;25154;-67
2023/07/28 11:23:35;;;;;;;20.70;14.23;;;;;;;;;;5019421;28;25143;-68
2023/07/28 11:26:01;;;;;;;22.83;15.60;;;;;;;;;;5020803;28;25076;-67
2023/07/28 11:28:28;;;;;;;17.23;13.70;;;;;;;;;;5013046;28;25096;-68
2023/07/28 11:30:54;;;;;;;21.05;14.90;;;;;;;;;;5008941;28;25122;-67
2023/07/28 11:33:20;;;;;;;24.50;15.00;;;;;;;;;;5011157;28;25185;-68
2023/07/28 11:35:46;;;;;;;21.48;14.52;;;;;;;;;;5013002;28;25074;-67
2023/07/28 11:38:13;;;;;;;19.33;15.27;;;;;;;;;;5004516;28;25105;-67
2023/07/28 11:40:39;;;;;;;19.17;14.98;;;;;;;;;;5017405;28;25079;-68
2023/07/28 11:43:05;;;;;;;19.13;14.88;;;;;;;;;;5021254;28;25074;-66
2023/07/28 11:45:31;;;;;;;20.40;14.07;;;;;;;;;;5007211;28;25138;-67
2023/07/28 11:47:58;;;;;;;19.70;14.15;;;;;;;;;;5015015;28;25063;-66
2023/07/28 11:50:25;;;;;;;19.23;14.05;;;;;;;;;;5012600;28;25056;-68
2023/07/28 11:52:51;;;;;;;18.05;13.93;;;;;;;;;;5020546;28;25061;-68
2023/07/28 11:55:17;;;;;;;18.77;12.05;;;;;;;;;;5015030;28;25152;-68
2023/07/28 11:57:43;;;;;;;22.08;12.27;;;;;;;;;;5008495;28;25064;-67
2023/07/28 12:00:12;;;;;;;15.77;12.40;;;;;;;;;;5010160;28;25078;-69
2023/07/28 12:02:38;;;;;;;22.15;13.18;;;;;;;;;;4998063;28;25063;-67
2023/07/28 12:05:12;;;;;;;20.80;13.18;;;;;;;;;;5011633;28;25153;-67
2023/07/28 12:07:38;;;;;;;19.02;12.15;;;;;;;;;;5015076;28;25089;-67
2023/07/28 12:10:06;;;;;;;15.57;11.00;;;;;;;;;;5014213;28;25072;-69
2023/07/28 12:12:40;;;;;;;13.00;9.25;;;;;;;;;;5021299;28;25071;-67
2023/07/28 12:15:19;;;;;;;16.60;10.65;;;;;;;;;;5015679;28;25068;-67
2023/07/28 12:18:01;;;;;;;12.70;8.65;;;;;;;;;;5002364;28;25098;-66
2023/07/28 12:20:27;;;;;;;10.57;7.28;;;;;;;;;;5007573;28;25103;-66
2023/07/28 12:22:53;;;;;;;7.97;6.68;;;;;;;;;;5008612;28;25124;-67
2023/07/28 12:25:19;;;;;;;10.20;7.30;;;;;;;;;;5011225;28;25074;-66
2023/07/28 12:27:45;;;;;;;11.52;7.93;;;;;;;;;;5011356;28;25119;-67
2023/07/28 12:30:11;;;;;;;13.50;9.40;;;;;;;;;;5016377;28;25076;-68
2023/07/28 12:32:37;;;;;;;13.88;8.15;;;;;;;;;;5007020;28;25079;-69
2023/07/28 12:35:03;;;;;;;12.18;7.40;;;;;;;;;;5012466;28;25115;-64
2023/07/28 12:37:29;;;;;;;11.73;8.25;;;;;;;;;;5005113;28;25057;-68
2023/07/28 12:39:55;;;;;;;9.57;7.13;;;;;;;;;;5012885;28;25054;-66
2023/07/28 12:42:21;;;;;;;12.25;8.90;;;;;;;;;;5005620;28;25068;-68
2023/07/28 12:44:47;;;;;;;10.73;8.25;;;;;;;;;;5017217;28;25071;-68
2023/07/28 12:47:13;;;;;;;13.45;7.93;;;;;;;;;;5008358;28;25141;-66
2023/07/28 12:49:39;;;;;;;9.50;7.88;;;;;;;;;;5008989;28;25153;-68
2023/07/28 12:52:07;;;;;;;11.27;8.65;;;;;;;;;;5010149;28;25054;-68
2023/07/28 12:54:34;;;;;;;8.30;5.93;;;;;;;;;;5013005;28;25071;-68
2023/07/28 12:57:01;;;;;;;7.65;6.07;;;;;;;;;;5005178;28;25080;-69
2023/07/28 12:59:28;;;;;;;10.35;6.75;;;;;;;;;;5000635;28;25118;-68
2023/07/28 13:01:54;;;;;;;7.55;5.95;;;;;;;;;;4996414;28;25054;-67
2023/07/28 13:04:20;;;;;;;8.93;6.32;;;;;;;;;;5007578;28;25060;-66
2023/07/28 13:06:46;;;;;;;9.73;6.90;;;;;;;;;;5008584;28;25071;-66
2023/07/28 13:09:12;;;;;;;10.43;6.43;;;;;;;;;;5004033;28;25072;-67
2023/07/28 13:11:38;;;;;;;8.65;5.18;;;;;;;;;;5012039;28;25061;-67
2023/07/28 13:14:04;;;;;;;11.18;5.53;;;;;;;;;;5007021;28;25150;-68
2023/07/28 13:16:31;;;;;;;7.63;5.88;;;;;;;;;;5003528;28;25149;-69
2023/07/28 13:18:57;;;;;;;10.50;6.60;;;;;;;;;;4997662;28;25044;-67
2023/07/28 13:21:23;;;;;;;12.65;8.00;;;;;;;;;;5018299;28;25153;-66
2023/07/28 13:23:49;;;;;;;9.82;7.40;;;;;;;;;;4996446;28;25190;-66
2023/07/28 13:26:15;;;;;;;14.32;9.38;;;;;;;;;;5003097;28;25097;-66
2023/07/28 13:28:46;;;;;;;15.65;9.32;;;;;;;;;;4996823;28;25097;-67
2023/07/28 13:31:12;;;;;;;14.70;10.63;;;;;;;;;;5004476;28;25072;-65
2023/07/28 13:33:38;;;;;;;17.27;11.48;;;;;;;;;;5005710;28;25083;-66
2023/07/28 13:36:07;;;;;;;13.20;9.57;;;;;;;;;;5010494;28;25073;-64
2023/07/28 13:38:33;;;;;;;15.40;9.05;;;;;;;;;;5007750;28;25135;-66
2023/07/28 13:40:59;;;;;;;15.75;9.02;;;;;;;;;;5005448;28;25070;-67
2023/07/28 13:43:25;;;;;;;13.65;8.80;;;;;;;;;;5022210;28;25069;-65
2023/07/28 13:45:51;;;;;;;12.23;8.65;;;;;;;;;;5015627;28;25060;-67
2023/07/28 13:48:17;;;;;;;17.25;9.18;;;;;;;;;;4989377;28;25070;-67
2023/07/28 13:50:43;;;;;;;14.48;8.77;;;;;;;;;;5009032;28;25090;-68
2023/07/28 13:53:10;;;;;;;12.73;7.90;;;;;;;;;;5003506;28;25163;-67
2023/07/28 13:55:36;;;;;;;11.77;6.32;;;;;;;;;;4980910;28;25092;-66
2023/07/28 13:58:02;;;;;;;8.15;5.15;;;;;;;;;;4998043;28;25065;-68
2023/07/28 14:00:28;;;;;;;9.23;5.05;;;;;;;;;;5016357;28;25235;-67
2023/07/28 14:02:54;;;;;;;6.88;5.20;;;;;;;;;;5002839;28;25066;-69
2023/07/28 14:05:20;;;;;;;9.95;5.30;;;;;;;;;;5018688;28;25054;-66
2023/07/28 14:07:46;;;;;;;10.13;6.55;;;;;;;;;;5007341;28;25057;-66
2023/07/28 14:10:12;;;;;;;7.90;6.00;;;;;;;;;;5001374;28;25148;-65
2023/07/28 14:12:38;;;;;;;10.63;6.38;;;;;;;;;;5014535;28;25136;-67
2023/07/28 14:15:06;;;;;;;7.20;5.15;;;;;;;;;;5011350;28;25059;-68
2023/07/28 14:17:32;;;;;;;8.13;4.72;;;;;;;;;;5003913;28;25184;-66
2023/07/28 14:19:58;;;;;;;8.13;5.57;;;;;;;;;;5002321;28;25096;-68